sensor_id;sensor_type;location;lat;lon;timestamp;temperature;humidity
15143;DHT22;7672;50.834;6.286;2022-11-11T00:01:12;12.10;99.90
15143;DHT22;7672;50.834;6.286;2022-11-11T00:03:41;12.20;99.90
15143;DHT22;7672;50.834;6.286;2022-11-11T00:06:13;12.20;99.90
15143;DHT22;7672;50.834;6.286;2022-11-11T00:08:41;12.20;99.90
15143;DHT22;7672;50.834;6.286;2022-11-11T00:11:10;12.30;99.90
15143;DHT22;7672;50.834;6.286;2022-11-11T00:13:39;12.30;99.90
15143;DHT22;7672;50.834;6.286;2022-11-11T00:16:12;12.30;99.90
15143;DHT22;7672;50.834;6.286;2022-11-11T00:18:44;12.30;99.90
15143;DHT22;7672;50.834;6.286;2022-11-11T00:21:31;12.30;99.90
15143;DHT22;7672;50.834;6.286;2022-11-11T00:24:07;12.30;99.90
15143;DHT22;7672;50.834;6.286;2022-11-11T00:27:06;12.40;99.90
15143;DHT22;7672;50.834;6.286;2022-11-11T00:29:34;12.40;99.90
15143;DHT22;7672;50.834;6.286;2022-11-11T00:32:01;12.40;99.90
15143;DHT22;7672;50.834;6.286;2022-11-11T00:34:47;12.50;99.90
15143;DHT22;7672;50.834;6.286;2022-11-11T00:37:34;12.50;99.90
15143;DHT22;7672;50.834;6.286;2022-11-11T00:40:01;12.50;99.90
15143;DHT22;7672;50.834;6.286;2022-11-11T00:42:28;12.50;99.90
15143;DHT22;7672;50.834;6.286;2022-11-11T00:44:55;12.50;99.90
15143;DHT22;7672;50.834;6.286;2022-11-11T00:47:22;12.50;99.90
15143;DHT22;7672;50.834;6.286;2022-11-11T00:50:13;12.40;99.90
15143;DHT22;7672;50.834;6.286;2022-11-11T00:53:04;12.40;99.90
15143;DHT22;7672;50.834;6.286;2022-11-11T00:55:35;12.40;99.90
15143;DHT22;7672;50.834;6.286;2022-11-11T00:58:02;12.40;99.90
15143;DHT22;7672;50.834;6.286;2022-11-11T01:00:29;12.30;99.90
15143;DHT22;7672;50.834;6.286;2022-11-11T01:02:56;12.30;99.90
15143;DHT22;7672;50.834;6.286;2022-11-11T01:05:25;12.30;99.90
15143;DHT22;7672;50.834;6.286;2022-11-11T01:07:52;12.30;99.90
15143;DHT22;7672;50.834;6.286;2022-11-11T01:10:20;12.30;99.90
15143;DHT22;7672;50.834;6.286;2022-11-11T01:13:25;12.30;99.90
15143;DHT22;7672;50.834;6.286;2022-11-11T01:18:27;12.30;99.90
15143;DHT22;7672;50.834;6.286;2022-11-11T01:21:03;12.20;99.90
15143;DHT22;7672;50.834;6.286;2022-11-11T01:23:51;12.10;99.90
15143;DHT22;7672;50.834;6.286;2022-11-11T01:28:56;12.10;99.90
15143;DHT22;7672;50.834;6.286;2022-11-11T01:31:25;12.10;99.90
15143;DHT22;7672;50.834;6.286;2022-11-11T01:33:53;12.10;99.90
15143;DHT22;7672;50.834;6.286;2022-11-11T01:36:25;12.00;99.90
15143;DHT22;7672;50.834;6.286;2022-11-11T01:38:54;12.00;99.90
15143;DHT22;7672;50.834;6.286;2022-11-11T01:41:26;12.00;99.90
15143;DHT22;7672;50.834;6.286;2022-11-11T01:46:48;12.00;99.90
15143;DHT22;7672;50.834;6.286;2022-11-11T01:49:59;12.00;99.90
15143;DHT22;7672;50.834;6.286;2022-11-11T02:00:18;12.00;99.90
15143;DHT22;7672;50.834;6.286;2022-11-11T02:03:07;12.00;99.90
15143;DHT22;7672;50.834;6.286;2022-11-11T02:05:35;12.00;99.90
15143;DHT22;7672;50.834;6.286;2022-11-11T02:08:20;12.00;99.90
15143;DHT22;7672;50.834;6.286;2022-11-11T02:13:41;11.90;99.90
15143;DHT22;7672;50.834;6.286;2022-11-11T02:16:28;11.90;99.90
15143;DHT22;7672;50.834;6.286;2022-11-11T02:18:55;11.90;99.90
15143;DHT22;7672;50.834;6.286;2022-11-11T02:21:34;11.80;99.90
15143;DHT22;7672;50.834;6.286;2022-11-11T02:24:11;11.80;99.90
15143;DHT22;7672;50.834;6.286;2022-11-11T02:26:42;11.80;99.90
15143;DHT22;7672;50.834;6.286;2022-11-11T02:29:13;11.80;99.90
15143;DHT22;7672;50.834;6.286;2022-11-11T02:31:44;11.80;99.90
15143;DHT22;7672;50.834;6.286;2022-11-11T02:34:11;11.80;99.90
15143;DHT22;7672;50.834;6.286;2022-11-11T02:36:38;11.80;99.90
15143;DHT22;7672;50.834;6.286;2022-11-11T02:39:06;11.80;99.90
15143;DHT22;7672;50.834;6.286;2022-11-11T02:41:33;11.80;99.90
15143;DHT22;7672;50.834;6.286;2022-11-11T02:44:19;11.80;99.90
15143;DHT22;7672;50.834;6.286;2022-11-11T02:46:46;11.80;99.90
15143;DHT22;7672;50.834;6.286;2022-11-11T02:49:13;11.80;99.90
15143;DHT22;7672;50.834;6.286;2022-11-11T02:51:39;11.80;99.90
15143;DHT22;7672;50.834;6.286;2022-11-11T02:54:06;11.90;99.90
15143;DHT22;7672;50.834;6.286;2022-11-11T02:56:33;12.00;99.90
15143;DHT22;7672;50.834;6.286;2022-11-11T02:59:21;11.90;99.90
15143;DHT22;7672;50.834;6.286;2022-11-11T03:01:47;11.90;99.90
15143;DHT22;7672;50.834;6.286;2022-11-11T03:04:14;11.80;99.90
15143;DHT22;7672;50.834;6.286;2022-11-11T03:06:41;11.80;99.90
15143;DHT22;7672;50.834;6.286;2022-11-11T03:09:08;11.80;99.90
15143;DHT22;7672;50.834;6.286;2022-11-11T03:11:35;11.80;99.90
15143;DHT22;7672;50.834;6.286;2022-11-11T03:14:04;11.80;99.90
15143;DHT22;7672;50.834;6.286;2022-11-11T03:16:31;11.80;99.90
15143;DHT22;7672;50.834;6.286;2022-11-11T03:19:17;11.80;99.90
15143;DHT22;7672;50.834;6.286;2022-11-11T03:21:44;11.80;99.90
15143;DHT22;7672;50.834;6.286;2022-11-11T03:24:31;11.70;99.90
15143;DHT22;7672;50.834;6.286;2022-11-11T03:27:16;11.70;99.90
15143;DHT22;7672;50.834;6.286;2022-11-11T03:29:43;11.70;99.90
15143;DHT22;7672;50.834;6.286;2022-11-11T03:32:10;11.70;99.90
15143;DHT22;7672;50.834;6.286;2022-11-11T03:34:37;11.60;99.90
15143;DHT22;7672;50.834;6.286;2022-11-11T03:37:08;11.60;99.90
15143;DHT22;7672;50.834;6.286;2022-11-11T03:39:55;11.60;99.90
15143;DHT22;7672;50.834;6.286;2022-11-11T03:42:22;11.50;99.90
15143;DHT22;7672;50.834;6.286;2022-11-11T03:44:48;11.40;99.90
15143;DHT22;7672;50.834;6.286;2022-11-11T03:47:15;11.40;99.90
15143;DHT22;7672;50.834;6.286;2022-11-11T03:49:42;11.30;99.90
15143;DHT22;7672;50.834;6.286;2022-11-11T03:52:11;11.30;99.90
15143;DHT22;7672;50.834;6.286;2022-11-11T03:54:38;11.20;99.90
15143;DHT22;7672;50.834;6.286;2022-11-11T03:57:05;11.10;99.90
15143;DHT22;7672;50.834;6.286;2022-11-11T03:59:50;11.10;99.90
15143;DHT22;7672;50.834;6.286;2022-11-11T04:02:17;11.00;99.90
15143;DHT22;7672;50.834;6.286;2022-11-11T04:05:03;10.90;99.90
15143;DHT22;7672;50.834;6.286;2022-11-11T04:07:50;10.90;99.90
15143;DHT22;7672;50.834;6.286;2022-11-11T04:10:36;10.80;99.90
15143;DHT22;7672;50.834;6.286;2022-11-11T04:13:04;10.70;99.90
15143;DHT22;7672;50.834;6.286;2022-11-11T04:15:51;10.70;99.90
15143;DHT22;7672;50.834;6.286;2022-11-11T04:18:33;10.60;99.90
15143;DHT22;7672;50.834;6.286;2022-11-11T04:21:20;10.60;99.90
15143;DHT22;7672;50.834;6.286;2022-11-11T04:24:06;10.60;99.90
15143;DHT22;7672;50.834;6.286;2022-11-11T04:26:54;10.50;99.90
15143;DHT22;7672;50.834;6.286;2022-11-11T04:29:22;10.40;99.90
15143;DHT22;7672;50.834;6.286;2022-11-11T04:32:09;10.40;99.90
15143;DHT22;7672;50.834;6.286;2022-11-11T04:35:00;10.30;99.90
15143;DHT22;7672;50.834;6.286;2022-11-11T04:37:31;10.30;99.90
15143;DHT22;7672;50.834;6.286;2022-11-11T04:39:59;10.20;99.90
15143;DHT22;7672;50.834;6.286;2022-11-11T04:42:44;10.20;99.90
15143;DHT22;7672;50.834;6.286;2022-11-11T04:45:12;10.10;99.90
15143;DHT22;7672;50.834;6.286;2022-11-11T04:50:36;10.10;99.90
15143;DHT22;7672;50.834;6.286;2022-11-11T04:53:07;10.10;99.90
15143;DHT22;7672;50.834;6.286;2022-11-11T04:55:40;10.00;99.90
15143;DHT22;7672;50.834;6.286;2022-11-11T04:58:29;10.10;99.90
15143;DHT22;7672;50.834;6.286;2022-11-11T05:00:57;10.00;99.90
15143;DHT22;7672;50.834;6.286;2022-11-11T05:03:24;9.90;99.90
15143;DHT22;7672;50.834;6.286;2022-11-11T05:05:56;9.90;99.90
15143;DHT22;7672;50.834;6.286;2022-11-11T05:08:47;9.70;99.90
15143;DHT22;7672;50.834;6.286;2022-11-11T05:11:29;9.80;99.90
15143;DHT22;7672;50.834;6.286;2022-11-11T05:14:04;9.80;99.90
15143;DHT22;7672;50.834;6.286;2022-11-11T05:17:00;9.70;99.90
15143;DHT22;7672;50.834;6.286;2022-11-11T05:19:45;9.70;99.90
15143;DHT22;7672;50.834;6.286;2022-11-11T05:22:37;9.60;99.90
15143;DHT22;7672;50.834;6.286;2022-11-11T05:25:06;9.60;99.90
15143;DHT22;7672;50.834;6.286;2022-11-11T05:27:52;9.60;99.90
15143;DHT22;7672;50.834;6.286;2022-11-11T05:30:20;9.50;99.90
15143;DHT22;7672;50.834;6.286;2022-11-11T05:32:48;9.50;99.90
15143;DHT22;7672;50.834;6.286;2022-11-11T05:35:16;9.50;99.90
15143;DHT22;7672;50.834;6.286;2022-11-11T05:37:43;9.50;99.90
15143;DHT22;7672;50.834;6.286;2022-11-11T05:40:31;9.50;99.90
15143;DHT22;7672;50.834;6.286;2022-11-11T05:42:57;9.40;99.90
15143;DHT22;7672;50.834;6.286;2022-11-11T05:45:24;9.40;99.90
15143;DHT22;7672;50.834;6.286;2022-11-11T05:47:51;9.40;99.90
15143;DHT22;7672;50.834;6.286;2022-11-11T05:50:18;9.40;99.90
15143;DHT22;7672;50.834;6.286;2022-11-11T05:52:48;9.40;99.90
15143;DHT22;7672;50.834;6.286;2022-11-11T05:55:16;9.50;99.90
15143;DHT22;7672;50.834;6.286;2022-11-11T05:57:43;9.50;99.90
15143;DHT22;7672;50.834;6.286;2022-11-11T06:00:10;9.50;99.90
15143;DHT22;7672;50.834;6.286;2022-11-11T06:02:37;9.60;99.90
15143;DHT22;7672;50.834;6.286;2022-11-11T06:05:04;9.60;99.90
15143;DHT22;7672;50.834;6.286;2022-11-11T06:07:37;9.70;99.90
15143;DHT22;7672;50.834;6.286;2022-11-11T06:10:05;9.70;99.90
15143;DHT22;7672;50.834;6.286;2022-11-11T06:12:53;9.70;99.90
15143;DHT22;7672;50.834;6.286;2022-11-11T06:15:37;9.80;99.90
15143;DHT22;7672;50.834;6.286;2022-11-11T06:18:05;9.90;99.90
15143;DHT22;7672;50.834;6.286;2022-11-11T06:20:33;9.90;99.90
15143;DHT22;7672;50.834;6.286;2022-11-11T06:23:01;10.00;99.90
15143;DHT22;7672;50.834;6.286;2022-11-11T06:25:30;10.00;99.90
15143;DHT22;7672;50.834;6.286;2022-11-11T06:28:17;10.00;99.90
15143;DHT22;7672;50.834;6.286;2022-11-11T06:30:45;10.00;99.90
15143;DHT22;7672;50.834;6.286;2022-11-11T06:33:16;10.10;99.90
15143;DHT22;7672;50.834;6.286;2022-11-11T06:35:44;10.10;99.90
15143;DHT22;7672;50.834;6.286;2022-11-11T06:38:11;10.20;99.90
15143;DHT22;7672;50.834;6.286;2022-11-11T06:40:38;10.20;99.90
15143;DHT22;7672;50.834;6.286;2022-11-11T06:43:05;10.30;99.90
15143;DHT22;7672;50.834;6.286;2022-11-11T06:45:32;10.30;99.90
15143;DHT22;7672;50.834;6.286;2022-11-11T06:48:02;10.40;99.90
15143;DHT22;7672;50.834;6.286;2022-11-11T06:50:30;10.40;99.90
15143;DHT22;7672;50.834;6.286;2022-11-11T06:53:15;10.50;99.90
15143;DHT22;7672;50.834;6.286;2022-11-11T06:55:43;10.50;99.90
15143;DHT22;7672;50.834;6.286;2022-11-11T06:58:13;10.60;99.90
15143;DHT22;7672;50.834;6.286;2022-11-11T07:00:46;10.60;99.90
15143;DHT22;7672;50.834;6.286;2022-11-11T07:03:16;10.70;99.90
15143;DHT22;7672;50.834;6.286;2022-11-11T07:05:50;10.70;99.90
15143;DHT22;7672;50.834;6.286;2022-11-11T07:08:24;10.80;99.90
15143;DHT22;7672;50.834;6.286;2022-11-11T07:10:52;10.80;99.90
15143;DHT22;7672;50.834;6.286;2022-11-11T07:13:19;10.90;99.90
15143;DHT22;7672;50.834;6.286;2022-11-11T07:15:46;10.90;99.90
15143;DHT22;7672;50.834;6.286;2022-11-11T07:18:13;11.10;99.90
15143;DHT22;7672;50.834;6.286;2022-11-11T07:20:40;11.10;99.90
15143;DHT22;7672;50.834;6.286;2022-11-11T07:23:07;11.10;99.90
15143;DHT22;7672;50.834;6.286;2022-11-11T07:25:34;11.10;99.90
15143;DHT22;7672;50.834;6.286;2022-11-11T07:28:01;11.10;99.90
15143;DHT22;7672;50.834;6.286;2022-11-11T07:30:28;11.20;99.90
15143;DHT22;7672;50.834;6.286;2022-11-11T07:32:55;11.20;99.90
15143;DHT22;7672;50.834;6.286;2022-11-11T07:35:22;11.30;99.90
15143;DHT22;7672;50.834;6.286;2022-11-11T07:37:49;11.30;99.90
15143;DHT22;7672;50.834;6.286;2022-11-11T07:40:17;11.30;99.90
15143;DHT22;7672;50.834;6.286;2022-11-11T07:42:45;11.40;99.90
15143;DHT22;7672;50.834;6.286;2022-11-11T07:45:13;11.50;99.90
15143;DHT22;7672;50.834;6.286;2022-11-11T07:47:43;11.50;99.90
15143;DHT22;7672;50.834;6.286;2022-11-11T07:50:11;11.60;99.90
15143;DHT22;7672;50.834;6.286;2022-11-11T07:52:38;11.70;99.90
15143;DHT22;7672;50.834;6.286;2022-11-11T07:55:06;11.80;99.90
15143;DHT22;7672;50.834;6.286;2022-11-11T07:57:34;11.90;99.90
15143;DHT22;7672;50.834;6.286;2022-11-11T08:00:02;12.00;99.90
15143;DHT22;7672;50.834;6.286;2022-11-11T08:02:30;12.20;99.90
15143;DHT22;7672;50.834;6.286;2022-11-11T08:04:57;12.30;99.90
15143;DHT22;7672;50.834;6.286;2022-11-11T08:07:24;12.50;99.90
15143;DHT22;7672;50.834;6.286;2022-11-11T08:09:51;12.70;99.90
15143;DHT22;7672;50.834;6.286;2022-11-11T08:12:17;12.80;99.90
15143;DHT22;7672;50.834;6.286;2022-11-11T08:15:04;13.00;99.90
15143;DHT22;7672;50.834;6.286;2022-11-11T08:17:38;13.30;99.90
15143;DHT22;7672;50.834;6.286;2022-11-11T08:20:07;13.50;99.90
15143;DHT22;7672;50.834;6.286;2022-11-11T08:22:38;13.70;99.90
15143;DHT22;7672;50.834;6.286;2022-11-11T08:25:08;13.90;99.90
15143;DHT22;7672;50.834;6.286;2022-11-11T08:27:37;14.10;99.90
15143;DHT22;7672;50.834;6.286;2022-11-11T08:30:06;14.30;99.90
15143;DHT22;7672;50.834;6.286;2022-11-11T08:32:34;14.40;99.90
15143;DHT22;7672;50.834;6.286;2022-11-11T08:35:01;14.50;99.90
15143;DHT22;7672;50.834;6.286;2022-11-11T08:37:28;14.70;99.90
15143;DHT22;7672;50.834;6.286;2022-11-11T08:39:55;14.90;99.90
15143;DHT22;7672;50.834;6.286;2022-11-11T08:42:22;15.00;99.90
15143;DHT22;7672;50.834;6.286;2022-11-11T08:44:49;15.20;99.90
15143;DHT22;7672;50.834;6.286;2022-11-11T08:47:17;15.30;99.90
15143;DHT22;7672;50.834;6.286;2022-11-11T08:49:46;15.40;99.90
15143;DHT22;7672;50.834;6.286;2022-11-11T08:52:14;15.60;99.90
15143;DHT22;7672;50.834;6.286;2022-11-11T08:54:42;15.70;99.90
15143;DHT22;7672;50.834;6.286;2022-11-11T08:57:09;15.90;99.90
15143;DHT22;7672;50.834;6.286;2022-11-11T08:59:36;16.00;99.90
15143;DHT22;7672;50.834;6.286;2022-11-11T09:02:03;16.20;99.90
15143;DHT22;7672;50.834;6.286;2022-11-11T09:04:29;16.40;99.90
15143;DHT22;7672;50.834;6.286;2022-11-11T09:07:11;16.70;99.90
15143;DHT22;7672;50.834;6.286;2022-11-11T09:09:38;16.90;99.90
15143;DHT22;7672;50.834;6.286;2022-11-11T09:12:05;17.10;99.90
15143;DHT22;7672;50.834;6.286;2022-11-11T09:14:32;17.30;99.90
15143;DHT22;7672;50.834;6.286;2022-11-11T09:16:58;17.50;99.90
15143;DHT22;7672;50.834;6.286;2022-11-11T09:19:25;17.60;99.90
15143;DHT22;7672;50.834;6.286;2022-11-11T09:21:52;17.80;99.90
15143;DHT22;7672;50.834;6.286;2022-11-11T09:24:19;17.90;99.90
15143;DHT22;7672;50.834;6.286;2022-11-11T09:26:47;18.10;99.90
15143;DHT22;7672;50.834;6.286;2022-11-11T09:29:15;18.20;99.90
15143;DHT22;7672;50.834;6.286;2022-11-11T09:31:42;18.40;99.90
15143;DHT22;7672;50.834;6.286;2022-11-11T09:34:12;18.50;99.90
15143;DHT22;7672;50.834;6.286;2022-11-11T09:36:40;18.70;99.90
15143;DHT22;7672;50.834;6.286;2022-11-11T09:39:07;19.00;99.90
15143;DHT22;7672;50.834;6.286;2022-11-11T09:41:55;19.10;99.90
15143;DHT22;7672;50.834;6.286;2022-11-11T09:45:04;19.30;99.90
15143;DHT22;7672;50.834;6.286;2022-11-11T09:50:20;19.90;99.90
15143;DHT22;7672;50.834;6.286;2022-11-11T09:55:48;20.30;99.90
15143;DHT22;7672;50.834;6.286;2022-11-11T09:58:40;20.50;99.90
15143;DHT22;7672;50.834;6.286;2022-11-11T10:01:16;20.50;99.90
15143;DHT22;7672;50.834;6.286;2022-11-11T10:04:04;20.50;99.90
15143;DHT22;7672;50.834;6.286;2022-11-11T10:06:39;20.70;99.90
15143;DHT22;7672;50.834;6.286;2022-11-11T10:09:23;20.70;99.90
15143;DHT22;7672;50.834;6.286;2022-11-11T10:12:04;20.80;99.90
15143;DHT22;7672;50.834;6.286;2022-11-11T10:14:39;20.90;99.90
15143;DHT22;7672;50.834;6.286;2022-11-11T10:17:29;21.00;99.90
15143;DHT22;7672;50.834;6.286;2022-11-11T10:20:34;21.10;99.90
15143;DHT22;7672;50.834;6.286;2022-11-11T10:23:15;21.10;99.90
15143;DHT22;7672;50.834;6.286;2022-11-11T10:26:10;21.20;99.90
15143;DHT22;7672;50.834;6.286;2022-11-11T10:28:48;21.20;99.90
15143;DHT22;7672;50.834;6.286;2022-11-11T10:31:18;21.30;99.90
15143;DHT22;7672;50.834;6.286;2022-11-11T10:34:04;21.30;99.90
15143;DHT22;7672;50.834;6.286;2022-11-11T10:36:56;21.40;99.90
15143;DHT22;7672;50.834;6.286;2022-11-11T10:42:44;21.60;99.90
15143;DHT22;7672;50.834;6.286;2022-11-11T10:45:37;21.70;99.90
15143;DHT22;7672;50.834;6.286;2022-11-11T10:48:32;21.80;99.90
15143;DHT22;7672;50.834;6.286;2022-11-11T10:51:10;21.90;99.90
15143;DHT22;7672;50.834;6.286;2022-11-11T10:54:05;21.90;99.90
15143;DHT22;7672;50.834;6.286;2022-11-11T10:56:39;21.80;99.90
15143;DHT22;7672;50.834;6.286;2022-11-11T11:02:02;21.70;99.90
15143;DHT22;7672;50.834;6.286;2022-11-11T11:04:43;21.70;99.90
15143;DHT22;7672;50.834;6.286;2022-11-11T11:07:20;21.60;99.90
15143;DHT22;7672;50.834;6.286;2022-11-11T11:10:00;21.60;99.90
15143;DHT22;7672;50.834;6.286;2022-11-11T11:15:21;21.60;99.90
15143;DHT22;7672;50.834;6.286;2022-11-11T11:18:03;21.60;99.90
15143;DHT22;7672;50.834;6.286;2022-11-11T11:20:33;21.60;99.90
15143;DHT22;7672;50.834;6.286;2022-11-11T11:23:00;21.70;99.90
15143;DHT22;7672;50.834;6.286;2022-11-11T11:25:29;21.70;99.90
15143;DHT22;7672;50.834;6.286;2022-11-11T11:28:09;21.70;99.90
15143;DHT22;7672;50.834;6.286;2022-11-11T11:30:38;21.80;99.90
15143;DHT22;7672;50.834;6.286;2022-11-11T11:33:07;21.70;99.90
15143;DHT22;7672;50.834;6.286;2022-11-11T11:35:37;21.80;99.90
15143;DHT22;7672;50.834;6.286;2022-11-11T11:38:11;21.70;99.90
15143;DHT22;7672;50.834;6.286;2022-11-11T11:40:53;21.60;99.90
15143;DHT22;7672;50.834;6.286;2022-11-11T11:43:40;21.70;99.90
15143;DHT22;7672;50.834;6.286;2022-11-11T11:46:24;21.60;99.90
15143;DHT22;7672;50.834;6.286;2022-11-11T11:49:01;21.70;99.90
15143;DHT22;7672;50.834;6.286;2022-11-11T11:55:15;21.70;99.90
15143;DHT22;7672;50.834;6.286;2022-11-11T12:00:30;21.70;99.90
15143;DHT22;7672;50.834;6.286;2022-11-11T12:03:38;21.60;99.90
15143;DHT22;7672;50.834;6.286;2022-11-11T12:06:26;21.50;99.90
15143;DHT22;7672;50.834;6.286;2022-11-11T12:12:12;21.40;99.90
15143;DHT22;7672;50.834;6.286;2022-11-11T12:15:02;21.30;99.90
15143;DHT22;7672;50.834;6.286;2022-11-11T12:21:14;21.00;99.90
15143;DHT22;7672;50.834;6.286;2022-11-11T12:26:34;20.80;99.90
15143;DHT22;7672;50.834;6.286;2022-11-11T12:29:11;20.70;99.90
15143;DHT22;7672;50.834;6.286;2022-11-11T12:32:28;20.60;99.90
15143;DHT22;7672;50.834;6.286;2022-11-11T12:44:07;20.20;99.90
15143;DHT22;7672;50.834;6.286;2022-11-11T12:47:04;20.00;99.90
15143;DHT22;7672;50.834;6.286;2022-11-11T12:52:33;19.80;99.90
15143;DHT22;7672;50.834;6.286;2022-11-11T12:55:41;19.70;99.90
15143;DHT22;7672;50.834;6.286;2022-11-11T13:10:27;19.30;99.90
15143;DHT22;7672;50.834;6.286;2022-11-11T13:13:39;19.20;99.90
15143;DHT22;7672;50.834;6.286;2022-11-11T13:16:08;19.10;99.90
15143;DHT22;7672;50.834;6.286;2022-11-11T13:21:56;18.90;99.90
15143;DHT22;7672;50.834;6.286;2022-11-11T13:24:26;18.90;99.90
15143;DHT22;7672;50.834;6.286;2022-11-11T13:27:03;18.80;99.90
15143;DHT22;7672;50.834;6.286;2022-11-11T13:32:27;18.70;99.90
15143;DHT22;7672;50.834;6.286;2022-11-11T13:35:03;18.60;99.90
15143;DHT22;7672;50.834;6.286;2022-11-11T13:37:44;18.60;99.90
15143;DHT22;7672;50.834;6.286;2022-11-11T13:40:29;18.50;99.90
15143;DHT22;7672;50.834;6.286;2022-11-11T13:43:01;18.40;99.90
15143;DHT22;7672;50.834;6.286;2022-11-11T13:45:34;18.50;99.90
15143;DHT22;7672;50.834;6.286;2022-11-11T13:48:03;18.30;99.90
15143;DHT22;7672;50.834;6.286;2022-11-11T13:50:37;18.30;99.90
15143;DHT22;7672;50.834;6.286;2022-11-11T13:53:11;18.20;99.90
15143;DHT22;7672;50.834;6.286;2022-11-11T13:55:46;18.20;99.90
15143;DHT22;7672;50.834;6.286;2022-11-11T13:58:37;18.10;99.90
15143;DHT22;7672;50.834;6.286;2022-11-11T14:01:08;18.10;99.90
15143;DHT22;7672;50.834;6.286;2022-11-11T14:08:50;17.90;99.90
15143;DHT22;7672;50.834;6.286;2022-11-11T14:13:56;17.90;99.90
15143;DHT22;7672;50.834;6.286;2022-11-11T14:21:55;17.70;99.90
15143;DHT22;7672;50.834;6.286;2022-11-11T14:24:40;17.60;99.90
15143;DHT22;7672;50.834;6.286;2022-11-11T14:27:16;17.60;99.90
15143;DHT22;7672;50.834;6.286;2022-11-11T14:29:53;17.60;99.90
15143;DHT22;7672;50.834;6.286;2022-11-11T14:36:13;17.50;99.90
15143;DHT22;7672;50.834;6.286;2022-11-11T14:38:52;17.50;99.90
15143;DHT22;7672;50.834;6.286;2022-11-11T14:49:56;17.30;99.90
15143;DHT22;7672;50.834;6.286;2022-11-11T14:52:27;17.30;99.90
15143;DHT22;7672;50.834;6.286;2022-11-11T15:00:53;17.10;99.90
15143;DHT22;7672;50.834;6.286;2022-11-11T15:03:46;17.10;99.90
15143;DHT22;7672;50.834;6.286;2022-11-11T15:12:06;16.90;99.90
15143;DHT22;7672;50.834;6.286;2022-11-11T15:14:53;16.90;99.90
15143;DHT22;7672;50.834;6.286;2022-11-11T15:17:53;16.80;99.90
15143;DHT22;7672;50.834;6.286;2022-11-11T15:27:22;16.60;99.90
15143;DHT22;7672;50.834;6.286;2022-11-11T15:30:00;16.50;99.90
15143;DHT22;7672;50.834;6.286;2022-11-11T15:35:41;16.30;99.90
15143;DHT22;7672;50.834;6.286;2022-11-11T15:38:13;16.20;99.90
15143;DHT22;7672;50.834;6.286;2022-11-11T15:43:59;16.10;99.90
15143;DHT22;7672;50.834;6.286;2022-11-11T15:46:30;16.00;99.90
15143;DHT22;7672;50.834;6.286;2022-11-11T15:49:03;15.90;99.90
15143;DHT22;7672;50.834;6.286;2022-11-11T15:51:31;15.80;99.90
15143;DHT22;7672;50.834;6.286;2022-11-11T15:54:31;15.70;99.90
15143;DHT22;7672;50.834;6.286;2022-11-11T15:56:59;15.60;99.90
15143;DHT22;7672;50.834;6.286;2022-11-11T15:59:30;15.50;99.90
15143;DHT22;7672;50.834;6.286;2022-11-11T16:02:07;15.40;99.90
15143;DHT22;7672;50.834;6.286;2022-11-11T16:05:14;15.40;99.90
15143;DHT22;7672;50.834;6.286;2022-11-11T16:07:48;15.30;99.90
15143;DHT22;7672;50.834;6.286;2022-11-11T16:10:27;15.10;99.90
15143;DHT22;7672;50.834;6.286;2022-11-11T16:13:13;15.10;99.90
15143;DHT22;7672;50.834;6.286;2022-11-11T16:22:03;14.80;99.90
15143;DHT22;7672;50.834;6.286;2022-11-11T16:24:38;14.70;99.90
15143;DHT22;7672;50.834;6.286;2022-11-11T16:27:06;14.60;99.90
15143;DHT22;7672;50.834;6.286;2022-11-11T16:29:38;14.50;99.90
15143;DHT22;7672;50.834;6.286;2022-11-11T16:32:19;14.40;99.90
15143;DHT22;7672;50.834;6.286;2022-11-11T16:34:58;14.30;99.90
15143;DHT22;7672;50.834;6.286;2022-11-11T16:37:26;14.20;99.90
15143;DHT22;7672;50.834;6.286;2022-11-11T16:39:53;14.20;99.90
15143;DHT22;7672;50.834;6.286;2022-11-11T16:42:26;14.10;99.90
15143;DHT22;7672;50.834;6.286;2022-11-11T16:45:00;14.00;99.90
15143;DHT22;7672;50.834;6.286;2022-11-11T16:50:22;13.90;99.90
15143;DHT22;7672;50.834;6.286;2022-11-11T16:53:23;13.80;99.90
15143;DHT22;7672;50.834;6.286;2022-11-11T16:55:54;13.80;99.90
15143;DHT22;7672;50.834;6.286;2022-11-11T16:58:21;13.70;99.90
15143;DHT22;7672;50.834;6.286;2022-11-11T17:00:48;13.70;99.90
15143;DHT22;7672;50.834;6.286;2022-11-11T17:03:20;13.60;99.90
15143;DHT22;7672;50.834;6.286;2022-11-11T17:08:33;13.50;99.90
15143;DHT22;7672;50.834;6.286;2022-11-11T17:11:03;13.40;99.90
15143;DHT22;7672;50.834;6.286;2022-11-11T17:13:32;13.40;99.90
15143;DHT22;7672;50.834;6.286;2022-11-11T17:16:07;13.20;99.90
15143;DHT22;7672;50.834;6.286;2022-11-11T17:18:36;13.20;99.90
15143;DHT22;7672;50.834;6.286;2022-11-11T17:21:05;13.10;99.90
15143;DHT22;7672;50.834;6.286;2022-11-11T17:23:32;13.00;99.90
15143;DHT22;7672;50.834;6.286;2022-11-11T17:26:05;13.00;99.90
15143;DHT22;7672;50.834;6.286;2022-11-11T17:28:34;13.00;99.90
15143;DHT22;7672;50.834;6.286;2022-11-11T17:31:03;12.90;99.90
15143;DHT22;7672;50.834;6.286;2022-11-11T17:33:31;12.80;99.90
15143;DHT22;7672;50.834;6.286;2022-11-11T17:35:58;12.80;99.90
15143;DHT22;7672;50.834;6.286;2022-11-11T17:38:27;12.70;99.90
15143;DHT22;7672;50.834;6.286;2022-11-11T17:40:54;12.70;99.90
15143;DHT22;7672;50.834;6.286;2022-11-11T17:43:21;12.60;99.90
15143;DHT22;7672;50.834;6.286;2022-11-11T17:45:48;12.60;99.90
15143;DHT22;7672;50.834;6.286;2022-11-11T17:48:16;12.50;99.90
15143;DHT22;7672;50.834;6.286;2022-11-11T17:50:42;12.50;99.90
15143;DHT22;7672;50.834;6.286;2022-11-11T17:53:09;12.40;99.90
15143;DHT22;7672;50.834;6.286;2022-11-11T17:55:42;12.40;99.90
15143;DHT22;7672;50.834;6.286;2022-11-11T17:58:10;12.30;99.90
15143;DHT22;7672;50.834;6.286;2022-11-11T18:00:39;12.30;99.90
15143;DHT22;7672;50.834;6.286;2022-11-11T18:03:08;12.20;99.90
15143;DHT22;7672;50.834;6.286;2022-11-11T18:05:35;12.20;99.90
15143;DHT22;7672;50.834;6.286;2022-11-11T18:08:02;12.20;99.90
15143;DHT22;7672;50.834;6.286;2022-11-11T18:10:29;12.10;99.90
15143;DHT22;7672;50.834;6.286;2022-11-11T18:12:57;12.00;99.90
15143;DHT22;7672;50.834;6.286;2022-11-11T18:15:24;12.00;99.90
15143;DHT22;7672;50.834;6.286;2022-11-11T18:17:51;12.00;99.90
15143;DHT22;7672;50.834;6.286;2022-11-11T18:20:17;11.90;99.90
15143;DHT22;7672;50.834;6.286;2022-11-11T18:22:44;11.80;99.90
15143;DHT22;7672;50.834;6.286;2022-11-11T18:25:11;11.80;99.90
15143;DHT22;7672;50.834;6.286;2022-11-11T18:27:39;11.80;99.90
15143;DHT22;7672;50.834;6.286;2022-11-11T18:30:06;11.70;99.90
15143;DHT22;7672;50.834;6.286;2022-11-11T18:32:34;11.70;99.90
15143;DHT22;7672;50.834;6.286;2022-11-11T18:35:01;11.70;99.90
15143;DHT22;7672;50.834;6.286;2022-11-11T18:37:28;11.70;99.90
15143;DHT22;7672;50.834;6.286;2022-11-11T18:39:54;11.60;99.90
15143;DHT22;7672;50.834;6.286;2022-11-11T18:42:21;11.60;99.90
15143;DHT22;7672;50.834;6.286;2022-11-11T18:44:48;11.50;99.90
15143;DHT22;7672;50.834;6.286;2022-11-11T18:47:15;11.50;99.90
15143;DHT22;7672;50.834;6.286;2022-11-11T18:49:42;11.40;99.90
15143;DHT22;7672;50.834;6.286;2022-11-11T18:52:08;11.40;99.90
15143;DHT22;7672;50.834;6.286;2022-11-11T18:54:35;11.40;99.90